This is the latest recevied weather packets stored in our database for station/object IQ0OG-3. If no packets are shown the sender has not sent any weather packets the latest 10 day(s).
| Time | Temp. | Humidity | Pressure | Rain* | Wind** | Luminosity | Snow |
|---|---|---|---|---|---|---|---|
| 1777417191 | 12.78° C | 72% | 1013.6 hPa | 0 mm | - | - | - |
| 1777416591 | 13.33° C | 73% | 1013.4 hPa | 0 mm | - | - | - |
| 1777415391 | 13.89° C | 60% | 1013.5 hPa | 0 mm | - | - | - |
| 1777409991 | 13.89° C | 82% | 1013.2 hPa | 0 mm | - | - | - |
| 1777408791 | 13.33° C | 83% | 1013.4 hPa | 0 mm | - | - | - |
| 1777408190 | 13.89° C | 81% | 1013.5 hPa | 0 mm | - | - | - |
| 1777406990 | 13.33° C | 86% | 1013.5 hPa | 0 mm | - | - | - |
| 1777402791 | 13.89° C | 85% | 1013.2 hPa | 0 mm | - | - | - |
| 1777401590 | 13.89° C | 86% | 1013 hPa | 0 mm | - | - | - |
| 1777399790 | 14.44° C | 84% | 1013.1 hPa | 0 mm | - | - | - |
| 1777399190 | 14.44° C | 84% | 1013.1 hPa | 0 mm | - | - | - |
| 1777395591 | 16.11° C | 78% | 1012.9 hPa | 0 mm | - | - | - |
| 1777384790 | 18.89° C | 50% | 1013.7 hPa | 0 mm | - | - | - |
| 1777380589 | 19.44° C | 52% | 1014.1 hPa | 0 mm | - | - | - |
| 1777371589 | 18.33° C | 58% | 1014.7 hPa | 0 mm | - | - | - |
| 1777364390 | 18.89° C | 48% | 1014.7 hPa | 0 mm | - | - | - |
| 1777362591 | 18.33° C | 47% | 1014.6 hPa | 0 mm | - | - | - |
| 1777357793 | 17.22° C | 40% | 1014.6 hPa | 0 mm | - | - | - |
| 1777353593 | 16.67° C | 50% | 1014.4 hPa | 0 mm | - | - | - |
| 1777343398 | 13.89° C | 49% | 1014.5 hPa | 0 mm | - | - | - |
| 1777336799 | 13.89° C | 50% | 1014.9 hPa | 0 mm | - | - | - |
* Rain latest hour (hover to see other rain measurements)
** Current wind speed in m/s (hover to see current wind gust speed)